Time;durP1;ratioP1;P1;durP2;ratioP2;P2;SDS_P1;SDS_P2;PMS_P1;PMS_P2;Temp;Humidity;BMP_temperature;BMP_pressure;BME280_temperature;BME280_humidity;BME280_pressure;Samples;Min_cycle;Max_cycle;Signal;HPM_P1;HPM_P2
2021/07/30 00:01:42;;;;;;;6.03;2.40;;;;;;;15.86;84.90;100151.59;5143264;28;20029;-77
2021/07/30 00:04:12;;;;;;;13.73;2.80;;;;;;;15.64;85.54;100153.84;5146170;28;20031;-78
2021/07/30 00:06:43;;;;;;;6.55;2.30;;;;;;;15.77;85.37;100146.88;5145623;28;20113;-78
2021/07/30 00:09:13;;;;;;;7.57;2.95;;;;;;;15.62;86.34;100143.44;5154357;28;20053;-77
2021/07/30 00:11:44;;;;;;;9.13;2.83;;;;;;;15.80;85.13;100144.03;5150724;28;20071;-78
2021/07/30 00:14:14;;;;;;;8.05;2.83;;;;;;;15.63;85.30;100155.66;5145915;28;20019;-76
2021/07/30 00:16:44;;;;;;;8.20;3.00;;;;;;;15.46;86.96;100147.97;5146300;28;20034;-78
2021/07/30 00:19:14;;;;;;;7.43;2.90;;;;;;;15.49;86.90;100146.91;5145367;28;20026;-75
2021/07/30 00:21:45;;;;;;;8.18;2.72;;;;;;;15.45;87.12;100148.91;5140988;28;20776;-78
2021/07/30 00:24:15;;;;;;;7.88;3.08;;;;;;;15.51;87.02;100145.06;5150098;28;20026;-78
2021/07/30 00:26:45;;;;;;;7.68;2.80;;;;;;;15.54;86.50;100144.84;5154029;28;20143;-78
2021/07/30 00:29:16;;;;;;;8.32;2.85;;;;;;;15.36;88.21;100146.84;5145956;28;20023;-77
2021/07/30 00:31:47;;;;;;;7.70;3.20;;;;;;;15.36;87.40;100144.19;5146105;28;20030;-77
2021/07/30 00:34:17;;;;;;;11.03;2.83;;;;;;;15.26;88.27;100140.44;5146123;28;20023;-78
2021/07/30 00:36:47;;;;;;;7.90;2.40;;;;;;;15.23;88.98;100148.50;5141549;28;20302;-78
2021/07/30 00:39:17;;;;;;;9.23;2.67;;;;;;;15.29;87.91;100137.63;5141378;28;21256;-78
2021/07/30 00:41:48;;;;;;;6.88;2.58;;;;;;;15.40;87.75;100139.59;5139783;28;20023;-78
2021/07/30 00:44:18;;;;;;;7.40;2.50;;;;;;;15.36;88.12;100135.47;5144412;28;20505;-78
2021/07/30 00:46:48;;;;;;;7.03;2.25;;;;;;;15.43;87.92;100135.00;5146837;28;20266;-77
2021/07/30 00:49:19;;;;;;;6.20;2.40;;;;;;;15.46;87.48;100133.94;5144636;28;20046;-76
2021/07/30 00:51:51;;;;;;;9.82;2.42;;;;;;;15.52;87.43;100142.31;5144968;28;20161;-76
2021/07/30 00:54:23;;;;;;;7.45;2.58;;;;;;;15.50;87.27;100138.94;5148999;28;20076;-78
2021/07/30 00:56:53;;;;;;;8.55;2.58;;;;;;;15.46;87.43;100136.56;5151851;28;20035;-78
2021/07/30 00:59:24;;;;;;;10.45;2.80;;;;;;;15.47;87.48;100146.16;5144854;28;20027;-78
2021/07/30 01:01:54;;;;;;;6.72;2.35;;;;;;;15.39;88.18;100140.53;5145612;28;20465;-77
2021/07/30 01:04:25;;;;;;;9.38;2.55;;;;;;;15.35;88.35;100145.13;5152823;28;20373;-77
2021/07/30 01:06:55;;;;;;;6.10;2.53;;;;;;;15.33;88.52;100143.56;5145209;28;20394;-76
2021/07/30 01:09:25;;;;;;;6.38;2.78;;;;;;;15.30;88.61;100141.94;5151929;28;20026;-78
2021/07/30 01:11:56;;;;;;;8.43;2.80;;;;;;;15.34;88.02;100134.72;5149503;28;20030;-78
2021/07/30 01:14:26;;;;;;;9.10;2.85;;;;;;;15.20;89.58;100142.59;5144848;28;20041;-78
2021/07/30 01:16:57;;;;;;;6.82;2.65;;;;;;;15.16;89.70;100133.19;5145748;28;20553;-78
2021/07/30 01:19:27;;;;;;;7.15;2.80;;;;;;;15.27;88.16;100133.34;5144712;28;20023;-77
2021/07/30 01:22:05;;;;;;;7.95;2.78;;;;;;;15.16;88.84;100147.19;5144711;28;20444;-77
2021/07/30 01:24:35;;;;;;;6.18;2.28;;;;;;;15.06;89.21;100140.81;5148782;28;20092;-78
2021/07/30 01:27:06;;;;;;;5.70;2.00;;;;;;;15.01;89.72;100145.47;5152562;28;20460;-77
2021/07/30 01:29:36;;;;;;;9.93;2.38;;;;;;;14.94;90.34;100146.78;5144443;28;20026;-78
2021/07/30 01:32:07;;;;;;;5.72;2.40;;;;;;;15.06;89.59;100146.06;5145488;28;20396;-76
2021/07/30 01:34:37;;;;;;;9.25;2.42;;;;;;;15.07;89.73;100137.22;5145208;28;20034;-78
2021/07/30 01:37:09;;;;;;;10.48;3.00;;;;;;;15.07;89.19;100137.22;5145770;28;20026;-78
2021/07/30 01:39:40;;;;;;;8.27;2.80;;;;;;;15.00;90.68;100138.53;5147498;28;20503;-78
2021/07/30 01:42:10;;;;;;;7.40;2.75;;;;;;;15.12;89.43;100142.19;5148413;28;20050;-78
2021/07/30 01:44:40;;;;;;;7.97;2.73;;;;;;;15.11;89.46;100149.25;5145305;28;20041;-76
2021/07/30 01:47:10;;;;;;;9.37;2.50;;;;;;;15.05;90.22;100135.63;5144922;28;20285;-78
2021/07/30 01:49:41;;;;;;;9.80;2.70;;;;;;;15.04;90.14;100142.66;5146089;28;20285;-77
2021/07/30 01:52:11;;;;;;;7.28;2.65;;;;;;;15.07;89.62;100141.63;5144021;28;20054;-77
2021/07/30 01:54:41;;;;;;;8.43;2.65;;;;;;;15.08;89.50;100148.59;5148850;28;20113;-78
2021/07/30 01:57:12;;;;;;;9.85;2.50;;;;;;;15.12;90.02;100150.09;5151413;28;20065;-78
2021/07/30 01:59:42;;;;;;;8.60;2.70;;;;;;;15.16;89.26;100149.81;5145507;28;20019;-78
2021/07/30 02:02:12;;;;;;;6.07;2.42;;;;;;;15.06;89.57;100156.59;5144812;28;20031;-77
2021/07/30 02:04:43;;;;;;;10.40;2.75;;;;;;;14.96;90.15;100150.19;5160769;23;20056;-77
2021/07/30 02:07:13;;;;;;;6.28;2.20;;;;;;;15.06;89.51;100143.44;5171060;28;20566;-77
2021/07/30 02:09:43;;;;;;;6.10;2.42;;;;;;;15.01;90.25;100148.09;5171029;28;20026;-77
2021/07/30 02:12:15;;;;;;;6.60;2.30;;;;;;;14.97;90.37;100145.75;5166077;28;20101;-77
2021/07/30 02:14:45;;;;;;;11.10;2.75;;;;;;;14.88;91.32;100143.69;5152026;28;20285;-77
2021/07/30 02:17:15;;;;;;;6.73;2.50;;;;;;;14.95;90.45;100143.22;5142285;28;20093;-78
2021/07/30 02:19:46;;;;;;;9.25;2.60;;;;;;;14.85;90.98;100139.44;5142547;28;20289;-76
2021/07/30 02:22:16;;;;;;;8.50;2.50;;;;;;;14.83;90.31;100138.69;5141712;28;20034;-77
2021/07/30 02:24:46;;;;;;;11.07;2.40;;;;;;;14.85;90.77;100141.25;5146532;28;20038;-76
2021/07/30 02:27:16;;;;;;;5.33;2.30;;;;;;;14.84;90.82;100140.38;5149217;28;20058;-77
2021/07/30 02:29:47;;;;;;;7.30;2.57;;;;;;;14.90;90.47;100139.16;5142267;28;20494;-77
2021/07/30 02:32:17;;;;;;;8.13;2.58;;;;;;;14.77;91.80;100134.75;5141214;28;20278;-78
2021/07/30 02:34:47;;;;;;;7.03;2.40;;;;;;;14.70;92.21;100138.66;5141121;28;20527;-77
2021/07/30 02:37:17;;;;;;;8.52;2.70;;;;;;;14.78;92.12;100139.88;5142107;28;20027;-77
2021/07/30 02:39:48;;;;;;;6.88;2.55;;;;;;;14.94;90.75;100140.66;5149629;28;20035;-78
2021/07/30 02:42:18;;;;;;;12.05;2.50;;;;;;;14.87;90.76;100139.34;5145228;28;20447;-77
2021/07/30 02:44:48;;;;;;;7.82;2.58;;;;;;;14.78;92.22;100136.44;5141802;28;20019;-76
2021/07/30 02:47:18;;;;;;;7.80;2.53;;;;;;;14.72;92.05;100135.00;5142016;28;20077;-77
2021/07/30 02:49:49;;;;;;;8.50;2.50;;;;;;;14.68;92.30;100137.91;5141132;28;20033;-77
2021/07/30 02:52:19;;;;;;;7.15;2.60;;;;;;;14.70;91.85;100136.03;5141660;28;20772;-78
2021/07/30 02:54:50;;;;;;;8.55;2.92;;;;;;;14.74;91.80;100134.94;5145594;28;20060;-77
2021/07/30 02:57:20;;;;;;;9.13;3.22;;;;;;;14.49;93.28;100137.28;5148523;28;20469;-77
2021/07/30 02:59:50;;;;;;;7.13;2.80;;;;;;;14.42;93.63;100149.94;5141741;28;20026;-78
2021/07/30 03:02:20;;;;;;;13.07;3.13;;;;;;;14.43;94.32;100135.03;5141597;28;20274;-77
2021/07/30 03:04:51;;;;;;;6.68;2.40;;;;;;;14.61;93.40;100141.84;5141573;28;20034;-76
2021/07/30 03:07:21;;;;;;;8.23;2.60;;;;;;;14.57;93.17;100141.16;5141065;28;20054;-77
2021/07/30 03:09:51;;;;;;;7.45;2.63;;;;;;;14.44;93.97;100139.34;5149565;28;20402;-77
2021/07/30 03:12:21;;;;;;;7.10;2.67;;;;;;;14.52;93.11;100137.09;5144568;28;20026;-77
2021/07/30 03:14:52;;;;;;;10.05;2.58;;;;;;;14.56;92.43;100130.75;5148001;28;20277;-77
2021/07/30 03:17:22;;;;;;;8.52;2.80;;;;;;;14.56;92.97;100130.75;5145664;28;20034;-77
2021/07/30 03:19:52;;;;;;;9.65;2.65;;;;;;;14.55;93.00;100131.66;5142784;28;20061;-76
2021/07/30 03:22:22;;;;;;;6.73;2.70;;;;;;;14.58;93.02;100134.13;5147740;28;20340;-78
2021/07/30 03:24:53;;;;;;;7.38;2.70;;;;;;;14.49;93.20;100139.91;5155467;28;20581;-77
2021/07/30 03:27:24;;;;;;;6.47;2.90;;;;;;;14.38;94.37;100134.44;5153463;28;20077;-78
2021/07/30 03:29:54;;;;;;;9.63;2.90;;;;;;;14.30;94.34;100126.16;5146449;28;20034;-77
2021/07/30 03:32:24;;;;;;;8.50;2.70;;;;;;;14.34;94.66;100127.66;5148576;28;20432;-77
2021/07/30 03:34:55;;;;;;;5.35;2.65;;;;;;;14.27;94.88;100127.16;5148096;28;20064;-77
2021/07/30 03:37:25;;;;;;;8.20;2.70;;;;;;;14.25;94.49;100128.22;5150075;28;20143;-78
2021/07/30 03:39:55;;;;;;;7.60;3.05;;;;;;;14.06;95.83;100125.72;5158426;28;20317;-77
2021/07/30 03:42:25;;;;;;;6.53;2.80;;;;;;;14.05;96.00;100121.41;5147388;28;20061;-77
2021/07/30 03:44:56;;;;;;;9.95;2.90;;;;;;;14.25;94.20;100120.31;5145129;28;20270;-77
2021/07/30 03:47:26;;;;;;;8.27;3.08;;;;;;;14.08;96.13;100115.97;5145033;28;20034;-77
2021/07/30 03:49:56;;;;;;;7.93;3.08;;;;;;;14.26;93.98;100119.38;5144753;28;20050;-77
2021/07/30 03:52:27;;;;;;;6.40;2.85;;;;;;;14.11;95.08;100123.69;5144530;28;20447;-79
2021/07/30 03:54:57;;;;;;;6.43;2.80;;;;;;;14.23;94.82;100119.56;5148391;28;20101;-78
2021/07/30 03:57:27;;;;;;;8.60;3.00;;;;;;;14.35;94.54;100126.72;5149851;28;20389;-78
2021/07/30 03:59:57;;;;;;;7.00;3.00;;;;;;;14.29;94.50;100125.28;5143902;28;20531;-78
2021/07/30 04:02:28;;;;;;;7.82;2.97;;;;;;;14.45;93.41;100130.53;5143854;28;20274;-79
2021/07/30 04:04:58;;;;;;;7.40;2.90;;;;;;;14.52;94.01;100131.84;5143805;28;20038;-78
2021/07/30 04:07:28;;;;;;;6.38;2.70;;;;;;;14.62;93.45;100130.38;5147206;28;20145;-79
2021/07/30 04:09:58;;;;;;;7.57;2.80;;;;;;;14.69;92.96;100124.66;5150062;28;20019;-78
2021/07/30 04:12:29;;;;;;;9.52;2.88;;;;;;;14.66;94.13;100139.78;5151370;28;20045;-78
2021/07/30 04:14:59;;;;;;;6.47;2.60;;;;;;;14.73;93.36;100128.81;5145330;28;20543;-79
2021/07/30 04:17:29;;;;;;;7.15;2.67;;;;;;;14.92;92.59;100135.53;5149476;28;20132;-80
2021/07/30 04:20:00;;;;;;;9.52;2.80;;;;;;;14.91;92.87;100141.72;5146871;28;20314;-79
2021/07/30 04:22:30;;;;;;;9.40;2.73;;;;;;;14.95;92.48;100132.69;5150326;28;20030;-78
2021/07/30 04:25:00;;;;;;;8.70;3.05;;;;;;;14.88;93.50;100128.72;5148512;28;20281;-78
2021/07/30 04:27:30;;;;;;;8.07;2.67;;;;;;;15.15;91.66;100123.59;5148668;28;20069;-78
2021/07/30 04:30:01;;;;;;;5.60;2.45;;;;;;;15.11;92.90;100135.22;5147025;28;20115;-78
2021/07/30 04:32:31;;;;;;;7.82;2.90;;;;;;;15.12;91.56;100129.88;5147254;28;20504;-78
2021/07/30 04:35:01;;;;;;;6.50;2.57;;;;;;;15.33;92.04;100125.97;5154284;28;20038;-79
2021/07/30 04:37:32;;;;;;;8.20;2.92;;;;;;;15.64;90.63;100127.50;5157416;28;20293;-80
2021/07/30 04:40:02;;;;;;;9.55;2.97;;;;;;;15.80;89.52;100123.81;5160423;28;20034;-81
2021/07/30 04:42:33;;;;;;;9.73;3.17;;;;;;;16.62;87.54;100119.25;5157451;28;20038;-79
2021/07/30 04:45:03;;;;;;;6.05;2.25;;;;;;;17.95;81.46;100128.22;5156494;28;20106;-79
2021/07/30 04:47:33;;;;;;;5.55;2.40;;;;;;;19.45;74.51;100118.38;5151648;28;20121;-78
2021/07/30 04:50:04;;;;;;;6.43;2.20;;;;;;;20.86;71.95;100114.59;5148802;28;20031;-77
2021/07/30 04:52:34;;;;;;;7.18;2.17;;;;;;;21.06;69.96;100108.41;5147403;28;20279;-77
2021/07/30 04:55:05;;;;;;;7.20;2.30;;;;;;;21.86;67.13;100112.81;5148835;28;20046;-77
2021/07/30 04:57:35;;;;;;;4.68;1.70;;;;;;;22.73;64.34;100110.94;5146734;28;20631;-77
2021/07/30 05:00:06;;;;;;;5.80;1.90;;;;;;;23.30;64.39;100105.47;5148103;28;20664;-76
2021/07/30 05:02:37;;;;;;;5.93;1.83;;;;;;;24.25;59.80;100102.31;5145004;28;20023;-77
2021/07/30 05:05:07;;;;;;;5.77;1.87;;;;;;;23.11;64.34;100106.41;5145185;28;20034;-77
2021/07/30 05:07:37;;;;;;;8.55;2.35;;;;;;;23.53;61.83;100104.97;5144855;28;20029;-77
2021/07/30 05:10:08;;;;;;;7.10;1.97;;;;;;;22.71;65.44;100111.06;5146797;28;20678;-77
2021/07/30 05:12:38;;;;;;;4.78;1.70;;;;;;;23.60;61.76;100114.06;5144757;28;20030;-77
2021/07/30 05:15:09;;;;;;;6.57;1.97;;;;;;;23.31;63.32;100105.34;5145499;28;20039;-77
2021/07/30 05:17:42;;;;;;;6.60;2.05;;;;;;;24.98;58.47;100095.59;5148809;28;20897;-77
2021/07/30 05:20:13;;;;;;;5.93;2.10;;;;;;;23.94;61.05;100103.66;5148027;28;20018;-77
2021/07/30 05:22:43;;;;;;;4.18;1.70;;;;;;;24.17;61.89;100113.75;5146045;28;20524;-77
2021/07/30 05:25:14;;;;;;;4.83;1.70;;;;;;;26.11;58.70;100097.00;5148462;28;20092;-77
2021/07/30 05:27:44;;;;;;;4.47;1.63;;;;;;;27.64;55.05;100096.75;5146561;28;20775;-76
2021/07/30 05:30:14;;;;;;;9.53;1.90;;;;;;;25.44;57.87;100105.94;5148540;28;20101;-77
2021/07/30 05:32:45;;;;;;;5.40;1.90;;;;;;;26.20;55.33;100112.09;5146355;28;20093;-77
2021/07/30 05:35:15;;;;;;;6.97;1.83;;;;;;;26.60;54.39;100102.28;5148692;28;20033;-77
2021/07/30 05:37:45;;;;;;;4.45;1.63;;;;;;;27.10;55.14;100101.09;5146198;28;20301;-77
2021/07/30 05:40:16;;;;;;;5.68;1.92;;;;;;;25.96;56.74;100101.31;5149952;28;20018;-77
2021/07/30 05:42:46;;;;;;;5.90;1.98;;;;;;;26.40;55.42;100095.56;5144698;28;20030;-77
2021/07/30 05:45:16;;;;;;;5.23;1.90;;;;;;;26.34;55.54;100095.38;5146291;28;20049;-77
2021/07/30 05:47:48;;;;;;;3.92;1.70;;;;;;;27.61;54.95;100089.84;5147521;28;20582;-77
2021/07/30 05:50:18;;;;;;;4.22;1.83;;;;;;;28.58;51.63;100085.63;5148345;28;20022;-77
2021/07/30 05:52:51;;;;;;;5.03;1.90;;;;;;;29.79;50.68;100091.44;5145505;28;20539;-77
2021/07/30 05:55:21;;;;;;;6.00;1.92;;;;;;;29.12;50.35;100089.84;5147774;28;20053;-77
2021/07/30 05:57:52;;;;;;;5.32;1.92;;;;;;;27.96;52.45;100089.38;5146477;28;20440;-77
2021/07/30 06:00:22;;;;;;;7.33;2.10;;;;;;;29.22;50.55;100090.41;5147435;28;20034;-76
2021/07/30 06:02:52;;;;;;;7.50;1.90;;;;;;;30.52;48.59;100078.56;5142843;28;20022;-76
2021/07/30 06:05:23;;;;;;;8.82;2.50;;;;;;;27.85;52.64;100097.00;5141104;28;20282;-75
2021/07/30 06:07:57;;;;;;;8.02;2.10;;;;;;;29.28;51.39;100085.13;5141504;28;20023;-76
2021/07/30 06:10:27;;;;;;;8.10;2.45;;;;;;;29.22;51.06;100085.84;5150944;28;20034;-76
2021/07/30 06:12:58;;;;;;;6.72;2.40;;;;;;;30.42;49.18;100076.19;5140743;28;20385;-75
2021/07/30 06:15:29;;;;;;;8.38;2.42;;;;;;;27.78;53.12;100086.13;5140769;28;20105;-77
2021/07/30 06:18:01;;;;;;;8.93;2.67;;;;;;;28.20;52.24;100086.56;5140618;28;20536;-75
2021/07/30 06:20:31;;;;;;;8.93;2.38;;;;;;;27.81;53.24;100076.88;5140989;28;20041;-75
2021/07/30 06:23:02;;;;;;;9.57;3.00;;;;;;;25.73;58.03;100086.81;5139098;28;20117;-76
2021/07/30 06:25:32;;;;;;;8.23;2.67;;;;;;;24.99;58.68;100093.78;5147785;28;20033;-76
2021/07/30 06:28:03;;;;;;;7.15;2.67;;;;;;;25.49;58.73;100092.09;5144105;28;20026;-76
2021/07/30 06:30:33;;;;;;;8.10;3.03;;;;;;;24.48;59.57;100091.00;5139994;28;20476;-76
2021/07/30 06:33:10;;;;;;;8.02;2.80;;;;;;;25.21;57.35;100091.44;5140358;28;20100;-76
2021/07/30 06:35:41;;;;;;;9.38;2.80;;;;;;;24.56;58.25;100095.63;5140828;28;20736;-75
2021/07/30 06:38:11;;;;;;;8.00;2.95;;;;;;;24.51;58.02;100096.03;5142551;28;20030;-76
2021/07/30 06:40:44;;;;;;;9.93;2.90;;;;;;;23.28;60.31;100100.31;5147546;28;20022;-75
2021/07/30 06:43:15;;;;;;;8.13;2.35;;;;;;;23.55;61.11;100094.97;5134435;28;20309;-77
2021/07/30 06:45:45;;;;;;;5.97;2.22;;;;;;;24.63;59.56;100089.50;5139397;28;20046;-76
2021/07/30 06:48:15;;;;;;;8.65;2.40;;;;;;;25.12;56.61;100088.84;5139548;28;20030;-75
2021/07/30 06:50:45;;;;;;;7.00;2.40;;;;;;;24.62;57.91;100085.16;5139322;28;20022;-76
2021/07/30 06:53:16;;;;;;;8.23;2.50;;;;;;;25.00;57.40;100082.06;5141760;28;20094;-77
2021/07/30 06:55:46;;;;;;;6.77;2.10;;;;;;;25.89;54.30;100084.22;5155020;28;20789;-76
2021/07/30 06:58:16;;;;;;;6.90;2.27;;;;;;;25.90;54.40;100080.53;5147980;28;20388;-76
2021/07/30 07:00:46;;;;;;;6.67;2.40;;;;;;;26.72;54.68;100082.16;5147438;28;20444;-76
2021/07/30 07:03:17;;;;;;;7.17;2.53;;;;;;;26.88;52.89;100077.63;5139028;28;20280;-76
2021/07/30 07:05:47;;;;;;;11.60;2.70;;;;;;;26.75;52.40;100076.47;5140432;28;20027;-76
2021/07/30 07:08:17;;;;;;;8.93;2.50;;;;;;;27.01;52.48;100072.56;5143798;28;20636;-77
2021/07/30 07:10:47;;;;;;;9.70;2.37;;;;;;;26.97;52.63;100073.91;5147470;28;20447;-77
2021/07/30 07:13:20;;;;;;;7.45;2.10;;;;;;;28.17;50.91;100065.38;5143569;28;20366;-76
2021/07/30 07:15:50;;;;;;;8.88;2.20;;;;;;;28.72;50.89;100066.00;5143746;28;20027;-76
2021/07/30 07:18:21;;;;;;;8.17;2.40;;;;;;;28.49;49.82;100058.97;5143886;28;20058;-77
2021/07/30 07:20:57;;;;;;;9.13;2.40;;;;;;;27.21;51.80;100071.22;5143368;28;20030;-76
2021/07/30 07:23:27;;;;;;;8.95;2.50;;;;;;;26.06;54.00;100078.75;5142450;28;20034;-76
2021/07/30 07:25:59;;;;;;;8.17;2.77;;;;;;;25.58;55.32;100067.00;5152948;28;20540;-76
2021/07/30 07:28:29;;;;;;;9.45;2.17;;;;;;;25.27;56.18;100060.50;5145560;28;20274;-75
2021/07/30 07:31:00;;;;;;;8.80;2.53;;;;;;;24.84;57.22;100064.06;5143359;28;20042;-75
2021/07/30 07:33:30;;;;;;;8.05;2.72;;;;;;;24.81;57.99;100066.25;5143772;28;20278;-76
2021/07/30 07:36:00;;;;;;;11.00;2.70;;;;;;;24.60;57.78;100065.75;5143474;28;20078;-76
2021/07/30 07:38:31;;;;;;;8.47;2.57;;;;;;;25.56;55.25;100050.28;5146863;28;20457;-76
2021/07/30 07:41:01;;;;;;;8.27;2.35;;;;;;;26.90;53.67;100053.31;5151013;28;20282;-76
2021/07/30 07:43:32;;;;;;;7.20;2.72;;;;;;;28.21;52.25;100055.97;5143948;28;20082;-76
2021/07/30 07:46:02;;;;;;;7.90;2.30;;;;;;;26.79;53.14;100054.47;5143404;28;20040;-76
2021/07/30 07:48:33;;;;;;;8.73;2.20;;;;;;;26.73;54.21;100063.22;5143381;28;20038;-76
2021/07/30 07:51:03;;;;;;;7.75;2.38;;;;;;;26.86;53.21;100050.13;5142498;28;20077;-76
2021/07/30 07:53:33;;;;;;;9.02;2.50;;;;;;;26.57;53.45;100056.19;5143124;28;20488;-76
2021/07/30 07:56:05;;;;;;;9.13;2.50;;;;;;;26.62;55.28;100056.50;5151605;28;20543;-76
2021/07/30 07:58:35;;;;;;;7.80;2.28;;;;;;;26.88;53.89;100047.25;5141856;28;20042;-76
2021/07/30 08:01:06;;;;;;;7.30;2.42;;;;;;;27.44;52.70;100050.66;5142720;28;20398;-76
2021/07/30 08:03:36;;;;;;;9.50;2.60;;;;;;;27.71;52.55;100052.91;5143138;28;20458;-75
2021/07/30 08:06:06;;;;;;;7.73;2.43;;;;;;;27.44;52.77;100055.19;5143259;28;20472;-77
2021/07/30 08:08:36;;;;;;;10.37;2.70;;;;;;;27.64;52.91;100062.63;5147211;28;20401;-77
2021/07/30 08:11:07;;;;;;;11.13;2.63;;;;;;;27.37;51.98;100062.25;5150749;28;20030;-76
2021/07/30 08:13:37;;;;;;;11.27;2.33;;;;;;;28.24;51.15;100055.59;5143286;28;20082;-76
2021/07/30 08:16:08;;;;;;;9.15;2.55;;;;;;;28.88;49.51;100047.00;5143391;28;20289;-77
2021/07/30 08:18:38;;;;;;;6.53;2.47;;;;;;;29.21;48.41;100059.13;5142168;28;20030;-76
2021/07/30 08:21:09;;;;;;;8.50;3.58;;;;;;;29.07;50.90;100060.78;5141173;28;20042;-76
2021/07/30 08:23:39;;;;;;;9.40;2.97;;;;;;;28.50;51.68;100061.47;5139633;28;20038;-76
2021/07/30 08:26:09;;;;;;;6.93;2.70;;;;;;;30.07;48.86;100063.59;5152443;28;20036;-77
2021/07/30 08:28:39;;;;;;;6.27;2.50;;;;;;;30.18;47.58;100063.09;5142390;28;20672;-76
2021/07/30 08:31:10;;;;;;;6.18;2.55;;;;;;;29.69;48.16;100061.22;5140751;28;20118;-77
2021/07/30 08:33:40;;;;;;;10.10;2.80;;;;;;;30.47;48.82;100057.59;5142040;28;20062;-76
2021/07/30 08:36:10;;;;;;;10.13;2.50;;;;;;;29.40;47.85;100053.19;5142566;28;20045;-76
2021/07/30 08:38:40;;;;;;;8.10;2.47;;;;;;;29.90;48.55;100070.22;5145860;28;20641;-76
2021/07/30 08:41:11;;;;;;;7.57;2.40;;;;;;;29.17;49.08;100061.34;5150411;28;20031;-76
2021/07/30 08:43:42;;;;;;;9.00;2.60;;;;;;;28.96;49.69;100065.78;5142764;28;20140;-75
2021/07/30 08:46:12;;;;;;;8.07;2.50;;;;;;;30.07;48.16;100070.88;5142807;28;20686;-76
2021/07/30 08:48:42;;;;;;;9.73;2.30;;;;;;;30.32;46.93;100073.00;5142256;28;20019;-75
2021/07/30 08:51:14;;;;;;;9.20;2.67;;;;;;;30.54;47.22;100074.66;5141563;28;20282;-76
2021/07/30 08:53:46;;;;;;;9.63;2.58;;;;;;;31.47;46.46;100066.03;5142954;28;20417;-76
2021/07/30 08:56:17;;;;;;;6.90;2.45;;;;;;;29.74;48.46;100069.63;5153336;28;20025;-76
2021/07/30 08:58:48;;;;;;;8.95;2.53;;;;;;;30.62;48.10;100057.53;5142571;28;20421;-76
2021/07/30 09:01:18;;;;;;;9.90;3.17;;;;;;;29.91;50.34;100060.28;5142674;28;20027;-76
2021/07/30 09:03:48;;;;;;;11.18;2.90;;;;;;;30.65;48.17;100057.13;5142474;28;20335;-76
2021/07/30 09:06:22;;;;;;;9.50;2.80;;;;;;;30.92;47.50;100057.13;5142645;28;20238;-77
2021/07/30 09:09:01;;;;;;;9.63;2.60;;;;;;;31.42;46.72;100052.31;5146930;28;20039;-76
2021/07/30 09:11:36;;;;;;;9.98;2.60;;;;;;;29.82;49.08;100056.00;5147618;28;20077;-77
2021/07/30 09:14:09;;;;;;;9.23;2.70;;;;;;;30.00;49.86;100048.34;5141769;28;20094;-77
2021/07/30 09:16:48;;;;;;;12.05;2.60;;;;;;;27.61;52.75;100044.19;5141869;28;20056;-77
2021/07/30 09:19:19;;;;;;;10.40;2.55;;;;;;;27.18;52.52;100035.81;5137996;28;20377;-77
2021/07/30 09:22:04;;;;;;;9.07;2.50;;;;;;;27.75;51.78;100039.97;5140858;28;20044;-76
2021/07/30 09:24:42;;;;;;;;;;;;;;;28.26;54.26;100034.75;5145939;28;20045;-77
2021/07/30 09:27:12;;;;;;;7.25;2.42;;;;;;;27.11;53.59;100038.34;5148789;28;20008;-77
2021/07/30 09:29:43;;;;;;;9.50;2.78;;;;;;;27.09;54.58;100039.53;5141333;28;20106;-77
2021/07/30 09:32:16;;;;;;;11.82;2.72;;;;;;;27.62;53.66;100034.31;5141312;28;20396;-78
2021/07/30 09:34:48;;;;;;;7.68;2.40;;;;;;;28.06;52.50;100030.00;5136821;28;20396;-77
2021/07/30 09:37:24;;;;;;;7.80;2.47;;;;;;;28.62;52.38;100021.53;5141448;28;20029;-77
2021/07/30 09:39:54;;;;;;;8.73;2.50;;;;;;;28.54;51.16;100030.50;5150316;28;20077;-78
2021/07/30 09:42:33;;;;;;;4.88;1.80;;;;;;;28.09;51.96;100029.69;5144208;28;20026;-78
2021/07/30 09:45:09;;;;;;;7.50;2.50;;;;;;;28.82;51.86;100018.13;5141748;28;20061;-78
2021/07/30 09:47:47;;;;;;;9.85;2.40;;;;;;;29.60;50.18;100019.28;5141455;28;20503;-78
2021/07/30 09:50:20;;;;;;;6.82;2.00;;;;;;;28.67;51.34;100016.44;5137369;28;20122;-77
2021/07/30 09:52:52;;;;;;;8.93;2.10;;;;;;;28.43;52.17;100016.63;5140633;28;20031;-77
2021/07/30 09:55:24;;;;;;;8.27;2.10;;;;;;;26.85;53.59;100005.53;5150964;28;20476;-77
2021/07/30 09:57:55;;;;;;;7.35;2.35;;;;;;;27.86;56.88;100010.84;5145508;28;20030;-76
2021/07/30 10:00:26;;;;;;;6.82;2.10;;;;;;;27.46;53.53;100000.28;5140622;28;20074;-78
2021/07/30 10:02:56;;;;;;;6.72;1.85;;;;;;;27.39;54.00;100007.38;5140860;28;20054;-76
2021/07/30 10:05:27;;;;;;;8.90;2.08;;;;;;;27.53;53.80;100001.28;5140805;28;20030;-76
2021/07/30 10:07:59;;;;;;;7.57;1.90;;;;;;;27.62;53.91;99994.84;5140624;28;20152;-76
2021/07/30 10:10:30;;;;;;;8.45;1.83;;;;;;;27.88;53.34;99995.38;5151224;28;20042;-76
2021/07/30 10:13:05;;;;;;;7.63;2.00;;;;;;;26.96;54.60;99986.38;5140403;28;20106;-76
2021/07/30 10:15:36;;;;;;;9.68;2.30;;;;;;;28.25;55.07;99979.31;5140019;28;20085;-76
2021/07/30 10:18:07;;;;;;;6.20;2.03;;;;;;;27.70;54.31;99983.22;5137852;28;20034;-77
2021/07/30 10:20:39;;;;;;;7.25;1.85;;;;;;;27.45;56.30;99982.50;5139410;28;20266;-76
2021/07/30 10:23:13;;;;;;;7.22;1.90;;;;;;;27.66;55.91;99973.84;5140276;28;20341;-76
2021/07/30 10:25:54;;;;;;;6.97;2.17;;;;;;;27.27;55.26;99973.06;5148926;28;20034;-76
2021/07/30 10:28:29;;;;;;;5.18;1.70;;;;;;;27.31;55.49;99975.19;5143493;28;20026;-77
2021/07/30 10:31:05;;;;;;;6.17;1.90;;;;;;;26.09;55.35;99975.75;5140602;28;20077;-76
2021/07/30 10:33:38;;;;;;;8.30;1.88;;;;;;;25.80;56.08;99962.81;5140443;28;20767;-76
2021/07/30 10:36:32;;;;;;;6.20;1.85;;;;;;;25.88;59.50;99964.69;5138804;28;20109;-76
2021/07/30 10:39:16;;;;;;;9.32;2.13;;;;;;;26.25;56.26;99959.66;5143672;28;20408;-76
2021/07/30 10:42:10;;;;;;;7.63;1.88;;;;;;;26.28;56.16;99940.56;5140965;28;20030;-76
2021/07/30 10:45:19;;;;;;;6.30;1.80;;;;;;;26.58;54.60;99940.75;5139815;28;20027;-76
2021/07/30 10:48:11;;;;;;;6.72;1.90;;;;;;;26.79;56.24;99935.66;5127524;28;20053;-75
2021/07/30 10:50:46;;;;;;;5.65;1.77;;;;;;;26.60;56.41;99938.72;5139500;28;20037;-76
2021/07/30 10:53:36;;;;;;;6.82;1.58;;;;;;;26.59;56.57;99929.00;5146136;28;20105;-75
2021/07/30 10:56:08;;;;;;;8.75;1.73;;;;;;;26.65;55.98;99925.63;5140649;28;20035;-76
2021/07/30 10:58:44;;;;;;;7.65;1.98;;;;;;;26.68;56.70;99937.88;5139769;28;20114;-76
2021/07/30 11:01:22;;;;;;;8.02;1.73;;;;;;;26.29;54.81;99935.06;5140006;28;20035;-76
2021/07/30 11:03:52;;;;;;;6.70;1.98;;;;;;;26.17;54.78;99938.25;5139492;28;20030;-76
2021/07/30 11:06:26;;;;;;;6.90;1.80;;;;;;;26.30;55.73;99935.88;5146701;28;20030;-76
2021/07/30 11:09:03;;;;;;;5.00;1.70;;;;;;;26.60;54.45;99937.88;5145366;28;20044;-76
2021/07/30 11:11:51;;;;;;;4.80;1.65;;;;;;;26.61;57.10;99936.84;5147982;28;20030;-75
2021/07/30 11:14:27;;;;;;;5.75;1.70;;;;;;;26.15;57.60;99932.22;5136478;28;20041;-76
2021/07/30 11:17:06;;;;;;;6.93;1.80;;;;;;;25.99;56.34;99921.53;5139574;28;20054;-76
2021/07/30 11:19:38;;;;;;;5.47;1.65;;;;;;;26.31;58.16;99916.94;5139895;28;20031;-76
2021/07/30 11:22:12;;;;;;;4.43;1.60;;;;;;;26.55;58.05;99921.47;5139397;28;20023;-76
2021/07/30 11:24:43;;;;;;;9.90;1.80;;;;;;;26.75;57.21;99908.31;5143688;28;20241;-76
2021/07/30 11:27:16;;;;;;;7.38;2.10;;;;;;;26.76;55.60;99910.00;5146573;28;20419;-76
2021/07/30 11:29:49;;;;;;;12.13;1.67;;;;;;;26.47;56.72;99902.66;5135897;28;20027;-75
2021/07/30 11:32:22;;;;;;;6.78;1.75;;;;;;;25.83;56.50;99914.28;5140376;28;20030;-76
2021/07/30 11:34:54;;;;;;;6.35;1.85;;;;;;;25.88;56.46;99906.63;5139501;28;20030;-75
2021/07/30 11:37:27;;;;;;;6.03;1.83;;;;;;;26.24;57.43;99899.03;5139890;28;20031;-76
2021/07/30 11:39:57;;;;;;;4.07;1.35;;;;;;;26.53;56.56;99897.50;5149487;28;20366;-76
2021/07/30 11:42:34;;;;;;;7.18;1.80;;;;;;;26.34;56.29;99900.53;5142742;28;20046;-76
2021/07/30 11:45:07;;;;;;;4.70;1.92;;;;;;;26.06;56.52;99903.75;5139794;28;20053;-75
2021/07/30 11:47:39;;;;;;;7.82;1.50;;;;;;;26.00;57.03;99907.94;5143343;28;20433;-76